Flight Track Log - Related Links

Times and Time Zones

All times are in EST time to prevent confusion due to time zone crossing. See the TRS182 flight status page for this flight to view local times or setup timezone preferences in your user account.

Time Position Orientation Groundspeed Altitude Reporting Facility
EST Latitude Longitude Course Direction KTS MPH feet Rate Location/Type
Sat 07:06:57 AM 40.8828 -81.4700 79° East 180 207 3,200  Level Cleveland Center
Sat 07:07:58 AM 40.8694 -81.3739 100° East 248 285 5,700 2,705 Climbing Cleveland Center
Sat 07:08:59 AM 40.8847 -81.2700 79° East 278 320 8,700 2,459 Climbing Cleveland Center
Sat 07:10:00 AM 40.9022 -81.1583 78° East 304 350 10,700 1,967 Climbing Cleveland Center
Sat 07:11:01 AM 40.9217 -81.0375 78° East 362 417 12,700 2,331 Climbing Cleveland Center
Sat 07:12:00 AM 41.0084 -80.6081 79° East  Level FlightAware Approximate
Sat 07:12:01 AM 40.9411 -80.9006 79° East 376 433 15,400  Level Cleveland Center
Sat 07:13:02 AM 40.9622 -80.7561 79° East 395 455 17,600 2,115 Climbing Cleveland Center
Sat 07:14:03 AM 40.9847 -80.6050 79° East 412 474 19,700 2,213 Climbing Cleveland Center
Sat 07:15:04 AM 41.0086 -80.4436 79° East 440 506 22,100 2,213 Climbing Cleveland Center
Sat 07:16:05 AM 41.0317 -80.2758 80° East 458 527 24,200 1,967 Climbing Cleveland Center
Sat 07:17:06 AM 41.0569 -80.1011 79° East 477 549 26,100 1,820 Climbing Cleveland Center
Sat 07:18:07 AM 41.0831 -79.9211 79° East 493 567 27,900 1,770 Climbing Cleveland Center
Sat 07:19:08 AM 41.1094 -79.7364 79° East 506 582 29,700 1,721 Climbing Cleveland Center
Sat 07:20:09 AM 41.1397 -79.5117 80° East 516 594 31,400 1,426 Climbing Cleveland Center
Sat 07:21:10 AM 41.1550 -79.3200 84° East 522 601 32,600 787 Climbing Cleveland Center
Sat 07:22:11 AM 41.1647 -79.1392 86° East 531 611 33,000 197 Climbing Cleveland Center
Sat 07:23:12 AM 41.1761 -78.9250 86° East 536 617 33,000  Level Cleveland Center
Sat 07:24:13 AM 41.1856 -78.7300 86° East 533 613 33,000  Level Cleveland Center
Sat 07:25:14 AM 41.1961 -78.5358 86° East 530 610 33,000  Level Cleveland Center
Sat 07:26:09 AM 41.2058 -78.3453 86° East 531 611 33,000  Level New York Center
Sat 07:27:10 AM 41.2139 -78.1492 87° East 531 611 33,000  Level New York Center
Sat 07:28:11 AM 41.1922 -77.9581 99° East 520 598 33,000  Level New York Center
Sat 07:29:12 AM 41.1686 -77.7656 99° East 526 605 33,000  Level New York Center
Sat 07:30:14 AM 41.1444 -77.5739 99° East 528 608 33,000  Level New York Center
Sat 07:31:15 AM 41.1197 -77.3833 100° East 524 603 33,000 -738 Level New York Center
Sat 07:32:16 AM 41.0925 -77.1683 99° East 529 609 31,500 -2,361 Descending New York Center
Sat 07:33:17 AM 41.0667 -76.9794 100° East 526 605 28,200 -2,439 Descending New York Center
Sat 07:34:19 AM 41.0431 -76.7972 100° East 507 583 26,500 -1,902 Descending New York Center
Sat 07:35:20 AM 41.0150 -76.6264 102° East 483 556 24,300 -2,311 Descending New York Center
Sat 07:36:21 AM 40.9753 -76.4644 108° East 468 539 21,800 -2,683 Descending New York Center
Sat 07:37:23 AM 40.9331 -76.2931 108° East 446 513 18,800 -2,341 Descending New York Center
Sat 07:38:24 AM 40.8961 -76.1400 108° East 420 483 17,000 -1,672 Descending New York Center
Sat 07:39:25 AM 40.8597 -75.9911 108° East 411 473 15,400 -1,377 Descending New York Center
Sat 07:40:26 AM 40.8269 -75.8558 108° East 403 464 14,200 -1,171 Descending New York Center
Sat 07:41:28 AM 40.7917 -75.7156 108° East 387 445 13,000 -585 Descending New York Center
Sat 07:42:29 AM 40.7572 -75.5758 108° East 386 444 13,000 -585 Level New York Center
Sat 07:43:31 AM 40.7250 -75.4453 108° East 380 437 11,800 -829 Descending New York Center
Sat 07:44:32 AM 40.6969 -75.3017 104° East 378 435 11,300 -492 Descending New York Center
Sat 07:45:33 AM 40.6692 -75.1669 105° East 371 427 10,800 -439 Descending New York Center
Sat 07:46:35 AM 40.6172 -75.0811 129° Southeast 311 358 10,400 -390 Descending New York Center
Sat 07:47:36 AM 40.5589 -74.9789 127° Southeast 342 394 10,000 -198 Descending New York Center
Sat 07:48:36 AM 40.5333 -74.8667 107° East 351 404 10,000  Level New York TRACON
Sat 07:49:30 AM 40.5000 -74.7500 111° Southeast 351 404 10,000  Level New York TRACON
Sat 07:50:24 AM 40.4667 -74.6500 114° Southeast 352 405 10,000 -158 Level New York TRACON
Sat 07:51:24 AM 40.4333 -74.5333 111° Southeast 334 384 9,700 -882 Descending New York TRACON
Sat 07:52:06 AM 40.4500 -74.4500 75° East 319 367 8,500 -1,529 Descending New York TRACON
Sat 07:53:06 AM 40.4833 -74.3500 66° East 304 350 7,100 -789 Descending New York TRACON
Sat 07:54:00 AM 40.5000 -74.2500 78° East 305 351 7,000 -56 Descending New York TRACON
Sat 07:54:54 AM 40.5333 -74.1500 66° East 306 352 7,000 -105 Level New York TRACON
Sat 07:55:54 AM 40.5833 -74.0833 45° Northeast 294 338 6,800 -1,095 Descending New York TRACON
Sat 07:57:00 AM 40.6500 -74.0000 43° Northeast 281 323 4,700 -2,000 Descending New York TRACON
Sat 07:57:54 AM 40.7000 -73.9500 37° Northeast 255 293 2,800 -1,579 Descending New York TRACON
Sat 07:58:54 AM 40.7167 -73.8667 75° East 185 213 1,700 -900 Descending New York TRACON
Sat 07:59:54 AM 40.7500 -73.8333 37° Northeast 155 178 1,000 -700 Descending New York TRACON
Sat 08:02:00 AM 40.7667 -73.8667 30° Northeast  Level FlightAware Approximate
Sat 08:09:00 AM 40.7772 -73.8726 30° Northeast  Level Estimated
Sat 08:10:00 AM 40.7772 -73.8726 30° Northeast  Level Estimated
Sat 08:11:00 AM 40.7772 -73.8726 30° Northeast  Level Estimated

Login

Don't have an account? Register now (free) for customized features, flight alerts, and more!